createdAt,value
2023-03-12T00:00:43.863Z,99842.32
2023-03-12T00:03:36.522Z,99825.86
2023-03-12T00:06:11.001Z,99828.42
2023-03-12T00:08:43.815Z,99839.87
2023-03-12T00:11:18.346Z,99842.68
2023-03-12T00:13:54.054Z,99844.11
2023-03-12T00:16:27.146Z,99841.50
2023-03-12T00:18:59.740Z,99842.06
2023-03-12T00:21:34.508Z,99841.38
2023-03-12T00:24:05.909Z,99838.48
2023-03-12T00:26:38.423Z,99822.42
2023-03-12T00:29:11.112Z,99840.63
2023-03-12T00:31:43.503Z,99842.13
2023-03-12T00:34:18.921Z,99838.83
2023-03-12T00:36:51.556Z,99830.98
2023-03-12T00:39:24.076Z,99839.80
2023-03-12T00:41:56.489Z,99841.25
2023-03-12T00:44:29.258Z,99843.23
2023-03-12T00:47:02.087Z,99840.94
2023-03-12T00:49:34.877Z,99842.39
2023-03-12T00:52:07.963Z,99842.81
2023-03-12T00:54:40.488Z,99843.41
2023-03-12T00:57:13.014Z,99846.21
2023-03-12T00:59:45.513Z,99842.77
2023-03-12T01:02:18.603Z,99846.92
2023-03-12T01:04:52.046Z,99845.56
2023-03-12T01:07:24.800Z,99837.45
2023-03-12T01:09:57.228Z,99838.59
2023-03-12T01:12:29.656Z,99834.26
2023-03-12T01:15:02.496Z,99833.32
2023-03-12T01:17:35.192Z,99835.52
2023-03-12T01:20:09.586Z,99843.66
2023-03-12T01:22:42.109Z,99839.05
2023-03-12T01:25:15.104Z,99836.67
2023-03-12T01:27:48.228Z,99847.05
2023-03-12T01:30:20.891Z,99844.04
2023-03-12T01:32:54.408Z,99846.01
2023-03-12T01:35:28.062Z,99853.19
2023-03-12T01:38:00.786Z,99843.86
2023-03-12T01:40:36.578Z,99860.13
2023-03-12T01:43:29.414Z,99854.67
2023-03-12T01:46:25.659Z,99858.13
2023-03-12T01:49:03.452Z,99857.11
2023-03-12T01:51:40.421Z,99856.73
2023-03-12T01:54:18.093Z,99832.34
2023-03-12T01:56:51.901Z,99853.39
2023-03-12T01:59:28.507Z,99858.82
2023-03-12T02:02:03.307Z,99865.00
2023-03-12T02:04:37.843Z,99859.00
2023-03-12T02:07:13.723Z,99863.79
2023-03-12T02:09:48.932Z,99867.55
2023-03-12T02:12:21.462Z,99864.48
2023-03-12T02:14:54.436Z,99865.08
2023-03-12T02:17:27.266Z,99865.72
2023-03-12T02:20:08.398Z,99863.48
2023-03-12T02:22:45.749Z,99864.78
2023-03-12T02:25:35.930Z,99867.17
2023-03-12T02:28:11.611Z,99869.89
2023-03-12T02:30:47.145Z,99870.42
2023-03-12T02:33:20.153Z,99867.30
2023-03-12T02:35:53.307Z,99861.41
2023-03-12T02:38:42.786Z,99867.11
2023-03-12T02:41:20.486Z,99863.55
2023-03-12T02:43:58.442Z,99854.48
2023-03-12T02:46:33.763Z,99869.52
2023-03-12T02:49:06.481Z,99872.27
2023-03-12T02:51:38.887Z,99878.69
2023-03-12T02:54:12.911Z,99881.36
2023-03-12T02:56:46.162Z,99887.81
2023-03-12T02:59:20.856Z,99886.92
2023-03-12T03:01:58.000Z,99890.48
2023-03-12T03:04:32.031Z,99894.26
2023-03-12T03:07:04.502Z,99890.21
2023-03-12T03:09:37.120Z,99894.94
2023-03-12T03:12:10.535Z,99900.44
2023-03-12T03:14:43.298Z,99896.69
2023-03-12T03:17:16.284Z,99897.63
2023-03-12T03:19:48.921Z,99895.81
2023-03-12T03:22:22.275Z,99896.81
2023-03-12T03:24:55.829Z,99891.90
2023-03-12T03:27:28.618Z,99894.92
2023-03-12T03:30:01.130Z,99903.45
2023-03-12T03:32:34.253Z,99904.77
2023-03-12T03:35:07.517Z,99901.41
2023-03-12T03:37:40.678Z,99906.75
2023-03-12T03:40:15.171Z,99908.71
2023-03-12T03:42:48.381Z,99912.38
2023-03-12T03:45:21.334Z,99914.12
2023-03-12T03:47:54.633Z,99893.64
2023-03-12T03:50:27.212Z,99923.83
2023-03-12T03:52:59.909Z,99923.30
2023-03-12T03:55:33.000Z,99935.37
2023-03-12T03:58:05.602Z,99939.62
2023-03-12T04:00:39.144Z,99947.27
2023-03-12T04:03:11.595Z,99940.34
2023-03-12T04:05:46.264Z,99945.29
2023-03-12T04:08:18.787Z,99950.36
2023-03-12T04:10:52.206Z,99960.73
2023-03-12T04:13:25.323Z,99959.44
2023-03-12T04:15:57.930Z,99958.09
2023-03-12T04:18:30.608Z,99969.90
2023-03-12T04:21:03.495Z,99969.86
2023-03-12T04:23:36.649Z,99970.05
2023-03-12T04:26:10.297Z,99965.92
2023-03-12T04:28:42.820Z,99974.10
2023-03-12T04:31:16.158Z,99975.93
2023-03-12T04:33:54.028Z,99984.96
2023-03-12T04:36:28.914Z,99967.52
2023-03-12T04:39:02.228Z,99987.08
2023-03-12T04:41:38.532Z,99987.73
2023-03-12T04:44:17.292Z,99989.34
2023-03-12T04:46:50.247Z,99990.63
2023-03-12T04:49:24.936Z,99981.89
2023-03-12T04:51:57.444Z,99992.66
2023-03-12T04:54:31.936Z,99989.61
2023-03-12T04:57:05.078Z,100000.42
2023-03-12T04:59:37.758Z,99998.15
2023-03-12T05:02:10.240Z,100006.59
2023-03-12T05:04:42.813Z,100009.84
2023-03-12T05:07:15.590Z,100013.16
2023-03-12T05:09:48.041Z,100007.95
2023-03-12T05:12:20.795Z,100010.96
2023-03-12T05:14:53.636Z,100015.29
2023-03-12T05:17:26.484Z,100021.73
2023-03-12T05:19:58.989Z,100028.17
2023-03-12T05:22:34.445Z,100032.27
2023-03-12T05:25:08.869Z,100018.89
2023-03-12T05:27:41.504Z,100040.58
2023-03-12T05:30:16.259Z,100039.95
2023-03-12T05:32:51.360Z,100045.33
2023-03-12T05:35:24.355Z,100049.08
2023-03-12T05:37:57.529Z,100052.54
2023-03-12T05:40:30.763Z,100053.77
2023-03-12T05:43:03.964Z,100063.93
2023-03-12T05:45:37.029Z,100067.45
2023-03-12T05:48:10.402Z,100070.39
2023-03-12T05:50:43.155Z,100073.00
2023-03-12T05:53:15.998Z,100078.70
2023-03-12T05:55:48.723Z,100088.51
2023-03-12T05:58:21.810Z,100088.48
2023-03-12T06:00:54.572Z,100089.27
2023-03-12T06:03:27.196Z,100091.20
2023-03-12T06:06:01.190Z,100099.61
2023-03-12T06:08:33.885Z,100090.26
2023-03-12T06:11:06.629Z,100112.68
2023-03-12T06:13:39.897Z,100109.27
2023-03-12T06:16:20.073Z,100114.05
2023-03-12T06:18:56.120Z,100113.34
2023-03-12T06:21:31.654Z,100117.76
2023-03-12T06:24:04.774Z,100120.29
2023-03-12T06:26:47.571Z,100122.20
2023-03-12T06:29:20.533Z,100127.73
2023-03-12T06:31:53.346Z,100125.39
2023-03-12T06:34:25.990Z,100130.05
2023-03-12T06:36:58.873Z,100138.25
2023-03-12T06:39:31.533Z,100138.60
2023-03-12T06:42:04.136Z,100146.97
2023-03-12T06:44:37.259Z,100146.36
2023-03-12T06:47:10.181Z,100145.96
2023-03-12T06:49:42.692Z,100149.23
2023-03-12T06:52:21.611Z,100151.13
2023-03-12T06:54:54.275Z,100140.77
2023-03-12T06:57:26.723Z,100162.13
2023-03-12T06:59:59.197Z,100163.29
2023-03-12T07:02:31.752Z,100163.08
2023-03-12T07:05:04.800Z,100160.55
2023-03-12T07:07:38.925Z,100161.42
2023-03-12T07:10:13.608Z,100167.73
2023-03-12T07:12:46.107Z,100165.80
2023-03-12T07:15:19.254Z,100172.65
2023-03-12T07:17:52.218Z,100174.28
2023-03-12T07:20:24.986Z,100173.52
2023-03-12T07:22:57.469Z,100176.08
2023-03-12T07:25:30.280Z,100178.12
2023-03-12T07:28:03.115Z,100180.52
2023-03-12T07:30:36.570Z,100178.91
2023-03-12T07:33:11.532Z,100176.45
2023-03-12T07:35:42.672Z,100184.70
2023-03-12T07:38:15.449Z,100187.55
2023-03-12T07:40:51.467Z,100174.02
2023-03-12T07:43:24.557Z,100191.45
2023-03-12T07:46:00.369Z,100192.90
2023-03-12T07:48:33.625Z,100197.78
2023-03-12T07:51:07.044Z,100202.53
2023-03-12T07:53:39.713Z,100208.29
2023-03-12T07:56:12.569Z,100204.89
2023-03-12T07:58:46.575Z,100207.90
2023-03-12T08:01:19.238Z,100191.60
2023-03-12T08:03:52.096Z,100206.20
2023-03-12T08:06:25.301Z,100218.17
2023-03-12T08:08:58.347Z,100215.70
2023-03-12T08:11:31.276Z,100213.86
2023-03-12T08:14:03.965Z,100219.11
2023-03-12T08:16:36.806Z,100215.38
2023-03-12T08:19:09.977Z,100221.18
2023-03-12T08:21:42.733Z,100221.77
2023-03-12T08:24:15.689Z,100225.83
2023-03-12T08:26:48.815Z,100224.76
2023-03-12T08:29:21.562Z,100227.80
2023-03-12T08:32:04.547Z,100228.73
2023-03-12T08:34:38.077Z,100231.68
2023-03-12T08:37:10.591Z,100218.73
2023-03-12T08:39:43.268Z,100228.57
2023-03-12T08:42:16.276Z,100233.19
2023-03-12T08:44:49.100Z,100229.95
2023-03-12T08:47:22.108Z,100234.80
2023-03-12T08:49:56.286Z,100238.42
2023-03-12T08:52:29.273Z,100235.17
2023-03-12T08:55:01.988Z,100240.56
2023-03-12T08:57:34.645Z,100245.04
2023-03-12T09:00:14.919Z,100244.78
2023-03-12T09:02:50.090Z,100246.23
2023-03-12T09:05:23.351Z,100247.67
2023-03-12T09:07:55.798Z,100238.36
2023-03-12T09:10:30.891Z,100242.27
2023-03-12T09:13:04.667Z,100256.52
2023-03-12T09:15:37.453Z,100257.84
2023-03-12T09:18:10.533Z,100259.67
2023-03-12T09:20:44.889Z,100262.11
2023-03-12T09:23:17.602Z,100258.42
2023-03-12T09:25:50.671Z,100264.90
2023-03-12T09:28:23.716Z,100262.65
2023-03-12T09:30:56.285Z,100262.51
2023-03-12T09:33:29.102Z,100264.94
2023-03-12T09:36:02.700Z,100268.66
2023-03-12T09:38:35.845Z,100270.17
2023-03-12T09:41:14.252Z,100270.42
2023-03-12T09:43:54.287Z,100273.53
2023-03-12T09:46:32.580Z,100273.27
2023-03-12T09:49:12.310Z,100274.09
2023-03-12T09:51:49.404Z,100267.46
2023-03-12T09:54:28.732Z,100268.73
2023-03-12T09:57:05.092Z,100268.64
2023-03-12T09:59:38.020Z,100258.92
2023-03-12T10:02:28.117Z,100271.23
2023-03-12T10:05:06.544Z,100271.39
2023-03-12T10:07:43.911Z,100269.85
2023-03-12T10:10:31.325Z,100273.31
2023-03-12T10:13:18.128Z,100266.96
2023-03-12T10:16:03.190Z,100272.34
2023-03-12T10:18:41.240Z,100251.63
2023-03-12T10:21:26.141Z,100272.30
2023-03-12T10:24:15.195Z,100272.36
2023-03-12T10:26:59.021Z,100268.36
2023-03-12T10:29:35.410Z,100283.21
2023-03-12T10:32:16.603Z,100276.89
2023-03-12T10:34:52.276Z,100280.59
2023-03-12T10:37:28.104Z,100265.20
2023-03-12T10:40:02.311Z,100284.19
2023-03-12T10:42:35.089Z,100285.87
2023-03-12T10:45:22.658Z,100281.44
2023-03-12T10:47:58.791Z,100269.70
2023-03-12T10:50:32.483Z,100277.47
2023-03-12T10:53:23.958Z,100273.84
2023-03-12T10:56:04.843Z,100277.65
2023-03-12T10:58:40.073Z,100269.30
2023-03-12T11:01:23.002Z,100282.84
2023-03-12T11:04:10.423Z,100286.16
2023-03-12T11:06:44.052Z,100275.49
2023-03-12T11:09:21.470Z,100275.27
2023-03-12T11:11:54.003Z,100278.81
2023-03-12T11:14:29.008Z,100273.66
2023-03-12T11:17:25.305Z,100272.41
2023-03-12T11:19:58.580Z,100273.15
2023-03-12T11:22:34.153Z,100272.04
2023-03-12T11:25:21.873Z,100261.65
2023-03-12T11:27:58.002Z,100265.45
2023-03-12T11:30:38.156Z,100267.06
2023-03-12T11:33:12.505Z,100257.38
2023-03-12T11:35:58.593Z,100244.46
2023-03-12T11:38:38.045Z,100248.45
2023-03-12T11:41:24.659Z,100244.21
2023-03-12T11:44:18.493Z,100243.06
2023-03-12T11:47:04.633Z,100242.38
2023-03-12T11:49:52.809Z,100242.88
2023-03-12T11:52:33.751Z,100251.77
2023-03-12T11:55:17.814Z,100246.95
2023-03-12T11:58:03.859Z,100249.91
2023-03-12T12:00:43.059Z,100249.27
2023-03-12T12:03:57.659Z,100249.27
2023-03-12T12:06:40.697Z,100244.34
2023-03-12T12:09:22.824Z,100244.98
2023-03-12T12:12:09.852Z,100245.40
2023-03-12T12:14:58.791Z,100238.59
2023-03-12T12:17:45.374Z,100245.85
2023-03-12T12:20:30.170Z,100237.34
2023-03-12T12:23:16.020Z,100235.60
2023-03-12T12:26:13.772Z,100208.59
2023-03-12T12:29:02.553Z,100233.94
2023-03-12T12:31:44.506Z,100232.35
2023-03-12T12:34:55.813Z,100231.03
2023-03-12T12:37:39.037Z,100223.43
2023-03-12T12:40:23.862Z,100220.85
2023-03-12T12:43:02.750Z,100220.49
2023-03-12T12:45:39.159Z,100222.98
2023-03-12T12:48:15.922Z,100204.27
2023-03-12T12:50:51.473Z,100218.84
2023-03-12T12:53:27.915Z,100217.34
2023-03-12T12:56:10.460Z,100217.14
2023-03-12T12:59:05.053Z,100221.84
2023-03-12T13:01:40.102Z,100211.98
2023-03-12T13:04:18.550Z,100210.45
2023-03-12T13:07:04.409Z,100207.80
2023-03-12T13:09:43.478Z,100210.58
2023-03-12T13:12:26.872Z,100214.75
2023-03-12T13:15:00.344Z,100205.89
2023-03-12T13:17:35.179Z,100217.41
2023-03-12T13:20:22.677Z,100220.52
2023-03-12T13:23:09.984Z,100222.08
2023-03-12T13:25:56.949Z,100225.19
2023-03-12T13:28:42.012Z,100229.36
2023-03-12T13:31:39.276Z,100227.25
2023-03-12T13:34:52.777Z,100218.43
2023-03-12T13:37:56.936Z,100221.10
2023-03-12T13:41:03.143Z,100214.70
2023-03-12T13:43:54.650Z,100211.32
2023-03-12T13:46:46.026Z,100211.05
2023-03-12T13:49:21.597Z,100215.85
2023-03-12T13:52:02.610Z,100215.26
2023-03-12T13:54:42.988Z,100219.67
2023-03-12T13:57:26.369Z,100219.30
2023-03-12T13:59:59.802Z,100219.48
2023-03-12T14:02:35.850Z,100216.70
2023-03-12T14:05:11.883Z,100214.37
2023-03-12T14:08:16.454Z,100212.34
2023-03-12T14:11:04.643Z,100202.42
2023-03-12T14:14:07.913Z,100204.61
2023-03-12T14:16:46.034Z,100204.59
2023-03-12T14:19:21.517Z,100202.63
2023-03-12T14:21:55.993Z,100198.95
2023-03-12T14:24:33.027Z,100197.19
2023-03-12T14:27:12.646Z,100195.23
2023-03-12T14:29:51.195Z,100188.16
2023-03-12T14:32:28.133Z,100181.36
2023-03-12T14:35:09.627Z,100183.89
2023-03-12T14:37:45.457Z,100187.70
2023-03-12T14:40:26.888Z,100189.02
2023-03-12T14:43:02.803Z,100194.93
2023-03-12T14:45:40.899Z,100193.76
2023-03-12T14:48:14.450Z,100193.35
2023-03-12T14:50:48.690Z,100180.26
2023-03-12T14:53:25.976Z,100192.27
2023-03-12T14:56:13.665Z,100181.55
2023-03-12T14:58:51.280Z,100174.59
2023-03-12T15:01:27.140Z,100171.19
2023-03-12T15:04:02.494Z,100173.92
2023-03-12T15:06:36.953Z,100160.70
2023-03-12T15:09:16.064Z,100150.81
2023-03-12T15:11:55.639Z,100150.34
2023-03-12T15:14:31.446Z,100142.36
2023-03-12T15:17:04.971Z,100143.73
2023-03-12T15:19:40.932Z,100144.89
2023-03-12T15:22:18.246Z,100148.77
2023-03-12T15:24:51.133Z,100143.27
2023-03-12T15:27:34.788Z,100138.52
2023-03-12T15:30:28.177Z,100137.93
2023-03-12T15:33:24.634Z,100143.80
2023-03-12T15:36:06.478Z,100141.80
2023-03-12T15:38:45.788Z,100159.55
2023-03-12T15:41:22.974Z,100157.80
2023-03-12T15:43:58.561Z,100155.06
2023-03-12T15:46:31.635Z,100153.72
2023-03-12T15:49:04.261Z,100155.39
2023-03-12T15:51:40.701Z,100150.08
2023-03-12T15:54:29.478Z,100139.55
2023-03-12T15:57:23.165Z,100138.69
2023-03-12T16:00:12.069Z,100135.30
2023-03-12T16:02:52.130Z,100131.06
2023-03-12T16:05:26.812Z,100130.36
2023-03-12T16:08:01.850Z,100134.06
2023-03-12T16:10:39.839Z,100124.38
2023-03-12T16:13:17.529Z,100117.58
2023-03-12T16:15:50.122Z,100110.78
2023-03-12T16:18:24.540Z,100110.87
2023-03-12T16:20:57.028Z,100109.48
2023-03-12T16:23:29.640Z,100104.38
2023-03-12T16:26:03.481Z,100099.73
2023-03-12T16:28:37.048Z,100095.73
2023-03-12T16:31:15.209Z,100100.17
2023-03-12T16:33:47.957Z,100099.23
2023-03-12T16:36:20.831Z,100106.39
2023-03-12T16:38:53.771Z,100105.95
2023-03-12T16:41:26.397Z,100103.56
2023-03-12T16:44:00.620Z,100109.12
2023-03-12T16:46:34.157Z,100110.56
2023-03-12T16:49:06.911Z,100106.57
2023-03-12T16:51:40.053Z,100111.34
2023-03-12T16:54:12.804Z,100109.73
2023-03-12T16:56:48.319Z,100105.95
2023-03-12T16:59:27.503Z,100107.71
2023-03-12T17:02:00.116Z,100104.70
2023-03-12T17:04:32.621Z,100107.10
2023-03-12T17:07:05.381Z,100097.83
2023-03-12T17:09:38.005Z,100105.60
2023-03-12T17:12:19.771Z,100097.84
2023-03-12T17:14:52.963Z,100105.25
2023-03-12T17:17:25.544Z,100109.15
2023-03-12T17:20:00.465Z,100109.07
2023-03-12T17:22:33.704Z,100096.41
2023-03-12T17:25:07.044Z,100089.09
2023-03-12T17:27:39.517Z,100089.08
2023-03-12T17:30:14.716Z,100085.35
2023-03-12T17:32:47.276Z,100081.04
2023-03-12T17:35:20.954Z,100086.41
2023-03-12T17:37:53.577Z,100084.38
2023-03-12T17:40:27.080Z,100068.93
2023-03-12T17:43:00.178Z,100083.35
2023-03-12T17:45:33.132Z,100085.34
2023-03-12T17:48:05.756Z,100092.88
2023-03-12T17:50:38.821Z,100095.02
2023-03-12T17:53:12.159Z,100088.30
2023-03-12T17:55:44.766Z,100086.74
2023-03-12T17:58:17.333Z,100079.70
2023-03-12T18:00:50.216Z,100086.58
2023-03-12T18:03:22.633Z,100100.08
2023-03-12T18:05:55.794Z,100107.52
2023-03-12T18:08:29.390Z,100114.07
2023-03-12T18:11:03.169Z,100115.70
2023-03-12T18:13:35.848Z,100116.81
2023-03-12T18:16:09.565Z,100114.09
2023-03-12T18:18:42.384Z,100111.34
2023-03-12T18:21:14.949Z,100103.13
2023-03-12T18:23:47.366Z,100094.32
2023-03-12T18:26:19.838Z,100080.52
2023-03-12T18:28:53.934Z,100073.98
2023-03-12T18:31:27.108Z,100059.14
2023-03-12T18:34:00.218Z,100066.94
2023-03-12T18:36:33.010Z,100064.77
2023-03-12T18:39:06.566Z,100067.56
2023-03-12T18:41:41.952Z,100063.30
2023-03-12T18:44:15.057Z,100060.98
2023-03-12T18:46:50.949Z,100059.17
2023-03-12T18:49:23.962Z,100060.69
2023-03-12T18:51:56.794Z,100057.43
2023-03-12T18:54:31.231Z,100052.39
2023-03-12T18:57:02.383Z,100054.00
2023-03-12T18:59:34.955Z,100033.30
2023-03-12T19:02:08.045Z,100043.36
2023-03-12T19:04:40.711Z,100034.98
2023-03-12T19:07:13.801Z,100035.01
2023-03-12T19:09:46.402Z,100035.20
2023-03-12T19:12:19.135Z,100037.02
2023-03-12T19:14:52.035Z,100029.83
2023-03-12T19:17:25.119Z,100032.42
2023-03-12T19:19:57.776Z,100026.60
2023-03-12T19:22:30.402Z,100026.21
2023-03-12T19:25:03.254Z,100021.35
2023-03-12T19:27:35.737Z,100010.61
2023-03-12T19:30:10.828Z,100005.84
2023-03-12T19:32:44.719Z,100007.37
2023-03-12T19:35:18.179Z,100001.39
2023-03-12T19:37:50.784Z,100003.00
2023-03-12T19:40:23.268Z,100005.48
2023-03-12T19:42:55.846Z,100002.88
2023-03-12T19:45:28.623Z,99998.85
2023-03-12T19:48:01.480Z,99998.66
2023-03-12T19:50:33.970Z,100005.16
2023-03-12T19:53:06.596Z,100012.09
2023-03-12T19:55:39.338Z,100008.73
2023-03-12T19:58:12.129Z,100006.38
2023-03-12T20:00:44.943Z,100002.14
2023-03-12T20:03:17.455Z,99980.88
2023-03-12T20:05:50.555Z,99993.70
2023-03-12T20:08:26.488Z,99992.94
2023-03-12T20:11:06.134Z,99983.90
2023-03-12T20:13:39.541Z,99991.81
2023-03-12T20:16:14.085Z,99987.27
2023-03-12T20:18:46.982Z,99989.64
2023-03-12T20:21:19.419Z,99986.37
2023-03-12T20:23:51.908Z,99981.04
2023-03-12T20:26:24.703Z,99985.59
2023-03-12T20:28:57.180Z,99994.41
2023-03-12T20:31:29.751Z,100001.21
2023-03-12T20:34:02.472Z,100002.80
2023-03-12T20:36:35.112Z,100005.46
2023-03-12T20:39:07.760Z,100002.41
2023-03-12T20:41:40.310Z,100002.38
2023-03-12T20:44:12.997Z,99987.86
2023-03-12T20:46:46.012Z,99999.88
2023-03-12T20:49:18.897Z,99998.52
2023-03-12T20:51:51.533Z,99997.63
2023-03-12T20:54:24.022Z,99995.54
2023-03-12T20:56:56.897Z,99995.06
2023-03-12T20:59:29.895Z,99996.02
2023-03-12T21:02:02.558Z,99995.89
2023-03-12T21:04:35.206Z,99998.16
2023-03-12T21:07:07.724Z,99998.48
2023-03-12T21:09:40.211Z,99995.68
2023-03-12T21:12:12.746Z,99991.89
2023-03-12T21:14:45.401Z,99986.41
2023-03-12T21:17:18.160Z,99990.45
2023-03-12T21:19:51.309Z,99983.75
2023-03-12T21:22:23.848Z,99981.57
2023-03-12T21:24:56.242Z,99980.27
2023-03-12T21:27:35.830Z,99973.21
2023-03-12T21:30:17.758Z,99970.95
2023-03-12T21:32:50.448Z,99962.63
2023-03-12T21:35:23.003Z,99948.64
2023-03-12T21:37:56.840Z,99965.34
2023-03-12T21:40:29.573Z,99959.73
2023-03-12T21:43:02.024Z,99953.63
2023-03-12T21:45:35.290Z,99946.45
2023-03-12T21:48:08.709Z,99931.98
2023-03-12T21:50:41.385Z,99938.52
2023-03-12T21:53:23.541Z,99940.37
2023-03-12T21:56:01.490Z,99937.61
2023-03-12T21:58:35.195Z,99945.14
2023-03-12T22:01:10.787Z,99942.93
2023-03-12T22:03:44.771Z,99944.73
2023-03-12T22:06:18.041Z,99938.72
2023-03-12T22:08:52.396Z,99939.13
2023-03-12T22:11:25.203Z,99930.93
2023-03-12T22:13:57.830Z,99930.63
2023-03-12T22:16:30.423Z,99927.91
2023-03-12T22:19:03.116Z,99923.12
2023-03-12T22:21:36.086Z,99921.48
2023-03-12T22:24:10.318Z,99921.58
2023-03-12T22:26:42.897Z,99917.20
2023-03-12T22:29:15.708Z,99912.27
2023-03-12T22:31:48.130Z,99909.48
2023-03-12T22:34:20.687Z,99898.77
2023-03-12T22:36:53.029Z,99897.02
2023-03-12T22:39:25.604Z,99893.46
2023-03-12T22:41:58.089Z,99893.21
2023-03-12T22:44:30.576Z,99881.67
2023-03-12T22:47:03.099Z,99874.56
2023-03-12T22:49:35.712Z,99868.42
2023-03-12T22:52:10.272Z,99867.16
2023-03-12T22:54:42.798Z,99861.04
2023-03-12T22:57:15.392Z,99858.05
2023-03-12T22:59:49.501Z,99843.52
2023-03-12T23:02:21.954Z,99847.94
2023-03-12T23:04:54.695Z,99855.05
2023-03-12T23:07:27.052Z,99857.08
2023-03-12T23:09:59.605Z,99860.30
2023-03-12T23:12:32.783Z,99853.95
2023-03-12T23:15:05.475Z,99843.47
2023-03-12T23:17:38.240Z,99854.45
2023-03-12T23:20:13.647Z,99849.14
2023-03-12T23:22:46.343Z,99847.59
2023-03-12T23:25:19.138Z,99848.71
2023-03-12T23:27:51.923Z,99852.82
2023-03-12T23:30:24.535Z,99846.95
2023-03-12T23:32:56.982Z,99841.02
2023-03-12T23:35:31.816Z,99843.29
2023-03-12T23:38:06.185Z,99840.12
2023-03-12T23:40:38.612Z,99839.86
2023-03-12T23:43:11.008Z,99830.23
2023-03-12T23:45:43.796Z,99830.33
2023-03-12T23:48:16.453Z,99812.64
2023-03-12T23:50:51.756Z,99822.83
2023-03-12T23:53:24.418Z,99820.77
2023-03-12T23:56:02.561Z,99827.27
2023-03-12T23:58:37.733Z,99814.20
